createdAt,value
2018-06-23T00:00:14.850Z,0.00
2018-06-23T00:01:14.781Z,0.00
2018-06-23T00:02:14.751Z,0.00
2018-06-23T00:03:14.732Z,0.00
2018-06-23T00:04:14.696Z,0.00
2018-06-23T00:05:14.718Z,0.00
2018-06-23T00:06:14.653Z,0.00
2018-06-23T00:07:14.614Z,0.00
2018-06-23T00:08:14.588Z,0.00
2018-06-23T00:09:14.568Z,0.00
2018-06-23T00:10:14.580Z,0.00
2018-06-23T00:11:14.520Z,0.00
2018-06-23T00:12:14.486Z,0.00
2018-06-23T00:13:14.452Z,0.00
2018-06-23T00:14:14.424Z,0.00
2018-06-23T00:15:14.499Z,0.00
2018-06-23T00:16:14.428Z,0.00
2018-06-23T00:17:14.341Z,0.00
2018-06-23T00:18:14.322Z,0.00
2018-06-23T00:19:14.303Z,0.00
2018-06-23T00:20:14.261Z,0.00
2018-06-23T00:21:14.278Z,0.00
2018-06-23T00:22:14.212Z,0.00
2018-06-23T00:23:14.186Z,0.00
2018-06-23T00:24:14.198Z,0.00
2018-06-23T00:25:14.170Z,0.00
2018-06-23T00:26:14.103Z,0.00
2018-06-23T00:27:14.069Z,0.00
2018-06-23T00:28:14.041Z,0.00
2018-06-23T00:29:14.015Z,0.00
2018-06-23T00:30:14.026Z,0.00
2018-06-23T00:31:14.015Z,0.00
2018-06-23T00:32:13.932Z,0.00
2018-06-23T00:33:13.904Z,0.00
2018-06-23T00:34:13.889Z,0.00
2018-06-23T00:35:13.854Z,0.00
2018-06-23T00:36:13.876Z,0.00
2018-06-23T00:37:14.720Z,0.00
2018-06-23T00:38:13.764Z,0.00
2018-06-23T00:39:13.743Z,0.00
2018-06-23T00:40:13.722Z,0.00
2018-06-23T00:41:13.730Z,0.00
2018-06-23T00:42:13.665Z,0.00
2018-06-23T00:43:13.625Z,0.00
2018-06-23T00:44:13.599Z,0.00
2018-06-23T00:45:13.578Z,0.00
2018-06-23T00:46:13.591Z,0.00
2018-06-23T00:47:13.572Z,0.00
2018-06-23T00:48:13.488Z,0.00
2018-06-23T00:49:13.461Z,0.00
2018-06-23T00:50:13.433Z,0.00
2018-06-23T00:51:13.469Z,0.00
2018-06-23T00:52:13.380Z,0.00
2018-06-23T00:53:13.357Z,0.00
2018-06-23T00:54:13.324Z,0.00
2018-06-23T00:55:13.293Z,0.00
2018-06-23T00:56:13.308Z,0.00
2018-06-23T00:57:13.241Z,0.00
2018-06-23T00:58:13.260Z,0.00
2018-06-23T00:59:13.183Z,0.00
2018-06-23T01:00:13.155Z,0.00
2018-06-23T01:01:13.133Z,0.00
2018-06-23T01:02:13.145Z,0.00
2018-06-23T01:03:13.070Z,0.00
2018-06-23T01:04:13.102Z,0.00
2018-06-23T01:05:13.015Z,0.00
2018-06-23T01:06:12.990Z,0.00
2018-06-23T01:07:12.965Z,0.00
2018-06-23T01:08:12.940Z,0.00
2018-06-23T01:09:12.953Z,0.00
2018-06-23T01:10:12.876Z,0.00
2018-06-23T01:11:12.870Z,0.00
2018-06-23T01:12:12.823Z,0.00
2018-06-23T01:13:12.850Z,0.00
2018-06-23T01:14:12.765Z,0.00
2018-06-23T01:15:12.744Z,0.00
2018-06-23T01:16:12.710Z,0.00
2018-06-23T01:17:13.219Z,0.00
2018-06-23T01:18:12.704Z,0.00
2018-06-23T01:19:12.630Z,0.00
2018-06-23T01:20:12.600Z,0.00
2018-06-23T01:21:12.618Z,0.00
2018-06-23T01:22:12.551Z,0.00
2018-06-23T01:23:12.521Z,0.00
2018-06-23T01:24:12.490Z,0.00
2018-06-23T01:25:12.507Z,0.00
2018-06-23T01:26:12.437Z,0.00
2018-06-23T01:27:12.449Z,0.00
2018-06-23T01:28:12.387Z,0.00
2018-06-23T01:29:12.352Z,0.00
2018-06-23T01:30:12.496Z,0.00
2018-06-23T01:31:12.340Z,0.00
2018-06-23T01:32:12.271Z,0.00
2018-06-23T01:33:12.287Z,0.00
2018-06-23T01:34:12.211Z,0.00
2018-06-23T01:35:12.192Z,0.00
2018-06-23T01:36:12.158Z,0.00
2018-06-23T01:37:12.131Z,0.00
2018-06-23T01:38:12.146Z,0.00
2018-06-23T01:39:12.079Z,0.00
2018-06-23T01:40:12.047Z,0.00
2018-06-23T01:41:12.021Z,0.00
2018-06-23T01:42:11.992Z,0.00
2018-06-23T01:43:12.006Z,0.00
2018-06-23T01:44:11.941Z,0.00
2018-06-23T01:45:11.908Z,0.00
2018-06-23T01:46:11.885Z,0.00
2018-06-23T01:47:11.911Z,0.00
2018-06-23T01:48:11.884Z,0.00
2018-06-23T01:49:11.800Z,0.00
2018-06-23T01:50:11.774Z,0.00
2018-06-23T01:51:11.741Z,0.00
2018-06-23T01:52:11.712Z,0.00
2018-06-23T01:53:11.741Z,0.00
2018-06-23T01:54:11.657Z,0.00
2018-06-23T01:55:11.630Z,0.00
2018-06-23T01:56:11.621Z,0.00
2018-06-23T01:57:11.577Z,0.00
2018-06-23T01:58:11.598Z,0.00
2018-06-23T01:59:11.521Z,0.00
2018-06-23T02:00:11.490Z,4.00
2018-06-23T02:01:12.231Z,4.00
2018-06-23T02:02:11.441Z,0.00
2018-06-23T02:03:11.458Z,0.00
2018-06-23T02:04:11.378Z,4.00
2018-06-23T02:05:11.397Z,4.00
2018-06-23T02:06:11.323Z,4.00
2018-06-23T02:07:11.295Z,4.00
2018-06-23T02:08:11.319Z,4.00
2018-06-23T02:09:11.292Z,8.00
2018-06-23T02:10:11.215Z,8.00
2018-06-23T02:11:11.220Z,8.00
2018-06-23T02:12:11.160Z,8.00
2018-06-23T02:13:11.128Z,12.00
2018-06-23T02:14:11.171Z,16.00
2018-06-23T02:15:11.073Z,20.00
2018-06-23T02:16:11.047Z,20.00
2018-06-23T02:17:11.022Z,20.00
2018-06-23T02:18:10.990Z,20.00
2018-06-23T02:19:11.005Z,24.00
2018-06-23T02:20:10.989Z,24.00
2018-06-23T02:21:10.915Z,24.00
2018-06-23T02:22:10.877Z,28.00
2018-06-23T02:23:10.860Z,32.00
2018-06-23T02:24:10.828Z,36.00
2018-06-23T02:25:10.840Z,40.00
2018-06-23T02:26:10.810Z,48.00
2018-06-23T02:27:10.750Z,56.00
2018-06-23T02:28:10.712Z,60.00
2018-06-23T02:29:10.685Z,68.00
2018-06-23T02:30:10.664Z,72.00
2018-06-23T02:31:10.672Z,88.00
2018-06-23T02:32:10.599Z,92.00
2018-06-23T02:33:10.573Z,108.00
2018-06-23T02:34:10.550Z,120.00
2018-06-23T02:35:10.516Z,124.00
2018-06-23T02:36:10.532Z,136.00
2018-06-23T02:37:10.469Z,140.00
2018-06-23T02:38:10.434Z,156.00
2018-06-23T02:39:10.409Z,168.00
2018-06-23T02:40:10.386Z,188.00
2018-06-23T02:41:10.394Z,200.00
2018-06-23T02:42:10.324Z,196.00
2018-06-23T02:43:10.296Z,196.00
2018-06-23T02:44:10.264Z,188.00
2018-06-23T02:45:10.288Z,188.00
2018-06-23T02:46:10.222Z,176.00
2018-06-23T02:47:10.232Z,188.00
2018-06-23T02:48:10.155Z,208.00
2018-06-23T02:49:10.123Z,216.00
2018-06-23T02:50:10.095Z,220.00
2018-06-23T02:51:10.112Z,252.00
2018-06-23T02:52:10.287Z,268.00
2018-06-23T02:53:10.012Z,232.00
2018-06-23T02:54:09.983Z,196.00
2018-06-23T02:55:09.956Z,200.00
2018-06-23T02:56:09.928Z,204.00
2018-06-23T02:57:09.942Z,196.00
2018-06-23T02:58:09.917Z,240.00
2018-06-23T02:59:09.842Z,312.00
2018-06-23T03:00:09.873Z,380.00
2018-06-23T03:01:09.787Z,460.00
2018-06-23T03:02:09.756Z,544.00
2018-06-23T03:03:09.729Z,540.00
2018-06-23T03:04:09.704Z,624.00
2018-06-23T03:05:09.724Z,732.00
2018-06-23T03:06:09.656Z,796.00
2018-06-23T03:07:09.618Z,680.00
2018-06-23T03:08:09.598Z,732.00
2018-06-23T03:09:09.605Z,944.00
2018-06-23T03:10:09.537Z,876.00
2018-06-23T03:11:09.509Z,864.00
2018-06-23T03:12:09.479Z,772.00
2018-06-23T03:13:09.496Z,712.00
2018-06-23T03:14:09.423Z,776.00
2018-06-23T03:15:09.397Z,860.00
2018-06-23T03:16:09.425Z,888.00
2018-06-23T03:17:09.355Z,884.00
2018-06-23T03:18:09.323Z,892.00
2018-06-23T03:19:09.283Z,856.00
2018-06-23T03:20:09.255Z,916.00
2018-06-23T03:21:09.278Z,912.00
2018-06-23T03:22:09.197Z,888.00
2018-06-23T03:23:09.180Z,856.00
2018-06-23T03:24:09.203Z,840.00
2018-06-23T03:25:09.115Z,788.00
2018-06-23T03:26:09.110Z,812.00
2018-06-23T03:27:09.057Z,876.00
2018-06-23T03:28:09.035Z,804.00
2018-06-23T03:29:09.040Z,828.00
2018-06-23T03:30:08.973Z,940.00
2018-06-23T03:31:08.964Z,1068.00
2018-06-23T03:32:08.975Z,1080.00
2018-06-23T03:33:08.890Z,1052.00
2018-06-23T03:34:08.862Z,1008.00
2018-06-23T03:35:08.834Z,968.00
2018-06-23T03:36:08.822Z,952.00
2018-06-23T03:37:08.838Z,972.00
2018-06-23T03:38:08.759Z,972.00
2018-06-23T03:39:08.723Z,1124.00
2018-06-23T03:40:08.749Z,1204.00
2018-06-23T03:41:08.671Z,1244.00
2018-06-23T03:42:08.657Z,1204.00
2018-06-23T03:43:08.675Z,1460.00
2018-06-23T03:44:08.587Z,1560.00
2018-06-23T03:45:08.554Z,1624.00
2018-06-23T03:46:08.538Z,1780.00
2018-06-23T03:47:08.544Z,1916.00
2018-06-23T03:48:08.483Z,2004.00
2018-06-23T03:49:08.451Z,2140.00
2018-06-23T03:50:08.415Z,1816.00
2018-06-23T03:51:08.387Z,1956.00
2018-06-23T03:52:08.429Z,2284.00
2018-06-23T03:53:08.334Z,2640.00
2018-06-23T03:54:08.362Z,2552.00
2018-06-23T03:55:08.289Z,2320.00
2018-06-23T03:56:08.251Z,2316.00
2018-06-23T03:57:08.219Z,2672.00
2018-06-23T03:58:08.245Z,3376.00
2018-06-23T03:59:08.220Z,2780.00
2018-06-23T04:00:08.180Z,3172.00
2018-06-23T04:01:08.121Z,4048.00
2018-06-23T04:02:08.086Z,3632.00
2018-06-23T04:03:08.101Z,4008.00
2018-06-23T04:04:08.045Z,4628.00
2018-06-23T04:05:08.008Z,4540.00
2018-06-23T04:06:07.969Z,3984.00
2018-06-23T04:07:07.949Z,4180.00
2018-06-23T04:08:08.353Z,4712.00
2018-06-23T04:09:07.940Z,5132.00
2018-06-23T04:10:07.902Z,7044.00
2018-06-23T04:11:07.878Z,8580.00
2018-06-23T04:12:07.803Z,7084.00
2018-06-23T04:13:07.779Z,5000.00
2018-06-23T04:14:07.750Z,4612.00
2018-06-23T04:15:07.770Z,5680.00
2018-06-23T04:16:07.692Z,6580.00
2018-06-23T04:17:07.669Z,7204.00
2018-06-23T04:18:07.641Z,6712.00
2018-06-23T04:19:07.652Z,5888.00
2018-06-23T04:20:07.587Z,5996.00
2018-06-23T04:21:07.576Z,7604.00
2018-06-23T04:22:07.582Z,8312.00
2018-06-23T04:23:07.504Z,8352.00
2018-06-23T04:24:07.472Z,8132.00
2018-06-23T04:25:07.449Z,8016.00
2018-06-23T04:26:07.474Z,7164.00
2018-06-23T04:27:07.393Z,7640.00
2018-06-23T04:28:07.367Z,8792.00
2018-06-23T04:29:07.346Z,5820.00
2018-06-23T04:30:07.313Z,4428.00
2018-06-23T04:31:07.322Z,4024.00
2018-06-23T04:32:07.809Z,4304.00
2018-06-23T04:33:07.230Z,4164.00
2018-06-23T04:34:07.202Z,4468.00
2018-06-23T04:35:07.180Z,4616.00
2018-06-23T04:36:07.146Z,5236.00
2018-06-23T04:37:07.195Z,6036.00
2018-06-23T04:38:07.088Z,6460.00
2018-06-23T04:39:07.452Z,8080.00
2018-06-23T04:40:07.038Z,8448.00
2018-06-23T04:41:07.018Z,7548.00
2018-06-23T04:42:07.075Z,8732.00
2018-06-23T04:43:06.956Z,6920.00
2018-06-23T04:44:07.754Z,7124.00
2018-06-23T04:45:06.902Z,8156.00
2018-06-23T04:46:06.875Z,5860.00
2018-06-23T04:47:06.911Z,6100.00
2018-06-23T04:48:06.822Z,6628.00
2018-06-23T04:49:06.802Z,7088.00
2018-06-23T04:50:06.770Z,7124.00
2018-06-23T04:51:06.745Z,4556.00
2018-06-23T04:52:06.774Z,5344.00
2018-06-23T04:53:06.689Z,7332.00
2018-06-23T04:54:06.660Z,9140.00
2018-06-23T04:55:06.635Z,9136.00
2018-06-23T04:56:06.608Z,7180.00
2018-06-23T04:57:06.622Z,5488.00
2018-06-23T04:58:06.550Z,5380.00
2018-06-23T04:59:06.578Z,5176.00
2018-06-23T05:00:06.499Z,5792.00
2018-06-23T05:01:06.475Z,6512.00
2018-06-23T05:02:06.477Z,6524.00
2018-06-23T05:03:06.417Z,5352.00
2018-06-23T05:04:06.471Z,4412.00
2018-06-23T05:05:06.369Z,4364.00
2018-06-23T05:06:06.340Z,5500.00
2018-06-23T05:07:06.308Z,6096.00
2018-06-23T05:08:06.290Z,7064.00
2018-06-23T05:09:06.312Z,6940.00
2018-06-23T05:10:06.226Z,7312.00
2018-06-23T05:11:06.205Z,5848.00
2018-06-23T05:12:06.174Z,4204.00
2018-06-23T05:13:06.151Z,4848.00
2018-06-23T05:14:06.172Z,6044.00
2018-06-23T05:15:06.096Z,7264.00
2018-06-23T05:16:06.070Z,9684.00
2018-06-23T05:17:06.720Z,9216.00
2018-06-23T05:18:06.059Z,8872.00
2018-06-23T05:19:05.995Z,6964.00
2018-06-23T05:20:06.023Z,8524.00
2018-06-23T05:21:05.930Z,7548.00
2018-06-23T05:22:05.946Z,5924.00
2018-06-23T05:23:05.883Z,9032.00
2018-06-23T05:24:05.857Z,11036.00
2018-06-23T05:25:05.886Z,6752.00
2018-06-23T05:26:05.822Z,7304.00
2018-06-23T05:27:05.771Z,4688.00
2018-06-23T05:28:05.746Z,5772.00
2018-06-23T05:29:05.717Z,9432.00
2018-06-23T05:30:05.751Z,9332.00
2018-06-23T05:31:05.677Z,7900.00
2018-06-23T05:32:05.638Z,6884.00
2018-06-23T05:33:05.613Z,6028.00
2018-06-23T05:34:05.599Z,5344.00
2018-06-23T05:35:05.638Z,7568.00
2018-06-23T05:36:05.538Z,10920.00
2018-06-23T05:37:05.511Z,8528.00
2018-06-23T05:38:05.477Z,8584.00
2018-06-23T05:39:05.450Z,10952.00
2018-06-23T05:40:05.485Z,13284.00
2018-06-23T05:41:05.396Z,17344.00
2018-06-23T05:42:05.378Z,13248.00
2018-06-23T05:43:05.349Z,12444.00
2018-06-23T05:44:05.323Z,17152.00
2018-06-23T05:45:05.384Z,15248.00
2018-06-23T05:46:05.268Z,13568.00
2018-06-23T05:47:05.243Z,11956.00
2018-06-23T05:48:05.216Z,10592.00
2018-06-23T05:49:05.186Z,8904.00
2018-06-23T05:50:05.216Z,6544.00
2018-06-23T05:51:05.133Z,5780.00
2018-06-23T05:52:05.107Z,6352.00
2018-06-23T05:53:05.080Z,6320.00
2018-06-23T05:54:05.061Z,5944.00
2018-06-23T05:55:05.095Z,6332.00
2018-06-23T05:56:05.057Z,7936.00
2018-06-23T05:57:04.979Z,6412.00
2018-06-23T05:58:04.956Z,6628.00
2018-06-23T05:59:04.924Z,6700.00
2018-06-23T06:00:04.906Z,5664.00
2018-06-23T06:01:04.915Z,5452.00
2018-06-23T06:02:04.859Z,5964.00
2018-06-23T06:03:04.824Z,6116.00
2018-06-23T06:04:04.847Z,6536.00
2018-06-23T06:05:04.767Z,7744.00
2018-06-23T06:06:04.740Z,7628.00
2018-06-23T06:07:04.796Z,6968.00
2018-06-23T06:08:04.693Z,7608.00
2018-06-23T06:09:04.663Z,5912.00
2018-06-23T06:10:04.638Z,5212.00
2018-06-23T06:11:04.608Z,5656.00
2018-06-23T06:12:04.626Z,7532.00
2018-06-23T06:13:04.565Z,7900.00
2018-06-23T06:14:04.534Z,6820.00
2018-06-23T06:15:04.505Z,6160.00
2018-06-23T06:16:04.482Z,4520.00
2018-06-23T06:17:04.510Z,3240.00
2018-06-23T06:18:04.428Z,4312.00
2018-06-23T06:19:04.401Z,4620.00
2018-06-23T06:20:04.376Z,4172.00
2018-06-23T06:21:04.345Z,3920.00
2018-06-23T06:22:04.374Z,3212.00
2018-06-23T06:23:04.339Z,3448.00
2018-06-23T06:24:04.265Z,4104.00
2018-06-23T06:25:04.244Z,3728.00
2018-06-23T06:26:04.211Z,3712.00
2018-06-23T06:27:04.186Z,4176.00
2018-06-23T06:28:04.206Z,5088.00
2018-06-23T06:29:04.132Z,4804.00
2018-06-23T06:30:04.107Z,4548.00
2018-06-23T06:31:04.091Z,5396.00
2018-06-23T06:32:04.053Z,4328.00
2018-06-23T06:33:04.081Z,4508.00
2018-06-23T06:34:04.005Z,5604.00
2018-06-23T06:35:03.970Z,6232.00
2018-06-23T06:36:03.943Z,5372.00
2018-06-23T06:37:03.935Z,4668.00
2018-06-23T06:38:03.938Z,5220.00
2018-06-23T06:39:03.861Z,7844.00
2018-06-23T06:40:03.843Z,5040.00
2018-06-23T06:41:03.850Z,3988.00
2018-06-23T06:42:03.782Z,5828.00
2018-06-23T06:43:03.767Z,7948.00
2018-06-23T06:44:03.775Z,6364.00
2018-06-23T06:45:03.702Z,7096.00
2018-06-23T06:46:03.686Z,7136.00
2018-06-23T06:47:03.655Z,7624.00
2018-06-23T06:48:03.622Z,8660.00
2018-06-23T06:49:03.640Z,9436.00
2018-06-23T06:50:03.568Z,8552.00
2018-06-23T06:51:03.537Z,10528.00
2018-06-23T06:52:03.518Z,11824.00
2018-06-23T06:53:03.532Z,11648.00
2018-06-23T06:54:03.459Z,8960.00
2018-06-23T06:55:03.438Z,8520.00
2018-06-23T06:56:03.402Z,9968.00
2018-06-23T06:57:03.407Z,8520.00
2018-06-23T06:58:03.399Z,11112.00
2018-06-23T06:59:03.320Z,10368.00
2018-06-23T07:00:03.340Z,11432.00
2018-06-23T07:01:03.270Z,8652.00
2018-06-23T07:02:03.241Z,7264.00
2018-06-23T07:03:03.227Z,6104.00
2018-06-23T07:04:03.188Z,7956.00
2018-06-23T07:05:03.215Z,7712.00
2018-06-23T07:06:03.129Z,7404.00
2018-06-23T07:07:03.108Z,7976.00
2018-06-23T07:08:03.078Z,8672.00
2018-06-23T07:09:03.054Z,12320.00
2018-06-23T07:10:03.084Z,14944.00
2018-06-23T07:11:03.005Z,14156.00
2018-06-23T07:12:02.971Z,12132.00
2018-06-23T07:13:02.950Z,9524.00
2018-06-23T07:14:02.919Z,9948.00
2018-06-23T07:15:02.957Z,9880.00
2018-06-23T07:16:02.869Z,14632.00
2018-06-23T07:17:02.842Z,11900.00
2018-06-23T07:18:02.817Z,8540.00
2018-06-23T07:19:02.790Z,7644.00
2018-06-23T07:20:02.864Z,6488.00
2018-06-23T07:21:02.736Z,6532.00
2018-06-23T07:22:02.713Z,6576.00
2018-06-23T07:23:02.683Z,6636.00
2018-06-23T07:24:02.706Z,8440.00
2018-06-23T07:25:02.680Z,13292.00
2018-06-23T07:26:03.191Z,12972.00
2018-06-23T07:27:02.627Z,12012.00
2018-06-23T07:28:02.558Z,11724.00
2018-06-23T07:29:02.527Z,12452.00
2018-06-23T07:30:02.509Z,11320.00
2018-06-23T07:31:02.481Z,11052.00
2018-06-23T07:32:02.506Z,11084.00
2018-06-23T07:33:02.423Z,12516.00
2018-06-23T07:34:02.397Z,12216.00
2018-06-23T07:35:02.448Z,12548.00
2018-06-23T07:36:02.391Z,10996.00
2018-06-23T07:37:02.318Z,12088.00
2018-06-23T07:38:02.344Z,16060.00
2018-06-23T07:39:02.270Z,16244.00
2018-06-23T07:40:02.245Z,14748.00
2018-06-23T07:41:02.214Z,16292.00
2018-06-23T07:42:02.205Z,14160.00
2018-06-23T07:43:02.212Z,14264.00
2018-06-23T07:44:02.140Z,13672.00
2018-06-23T07:45:02.112Z,13604.00
2018-06-23T07:46:02.084Z,12296.00
2018-06-23T07:47:02.059Z,12912.00
2018-06-23T07:48:02.093Z,14896.00
2018-06-23T07:49:02.008Z,17408.00
2018-06-23T07:50:01.988Z,15696.00
2018-06-23T07:51:01.955Z,16060.00
2018-06-23T07:52:01.934Z,16704.00
2018-06-23T07:53:01.950Z,16704.00
2018-06-23T07:54:01.923Z,16480.00
2018-06-23T07:55:01.854Z,15824.00
2018-06-23T07:56:01.870Z,18080.00
2018-06-23T07:57:01.847Z,14588.00
2018-06-23T07:58:01.795Z,13412.00
2018-06-23T07:59:01.757Z,12480.00
2018-06-23T08:00:01.775Z,22560.00
2018-06-23T08:01:01.706Z,23008.00
2018-06-23T08:02:01.719Z,21792.00
2018-06-23T08:03:01.652Z,22624.00
2018-06-23T08:04:01.630Z,21696.00
2018-06-23T08:05:01.612Z,18656.00
2018-06-23T08:06:01.577Z,17856.00
2018-06-23T08:07:01.603Z,17408.00
2018-06-23T08:08:01.532Z,17984.00
2018-06-23T08:09:01.504Z,20000.00
2018-06-23T08:10:01.474Z,20064.00
2018-06-23T08:11:01.455Z,19168.00
2018-06-23T08:12:01.469Z,18176.00
2018-06-23T08:13:01.445Z,16544.00
2018-06-23T08:14:01.429Z,16864.00
2018-06-23T08:15:01.352Z,15968.00
2018-06-23T08:16:01.341Z,17088.00
2018-06-23T08:17:01.303Z,25120.00
2018-06-23T08:18:01.296Z,28768.00
2018-06-23T08:19:01.310Z,23232.00
2018-06-23T08:20:01.229Z,18848.00
2018-06-23T08:21:01.215Z,14584.00
2018-06-23T08:22:01.179Z,12220.00
2018-06-23T08:23:01.155Z,12192.00
2018-06-23T08:24:01.172Z,17568.00
2018-06-23T08:25:01.156Z,30048.00
2018-06-23T08:26:01.084Z,17632.00
2018-06-23T08:27:01.061Z,11800.00
2018-06-23T08:28:01.076Z,12740.00
2018-06-23T08:29:01.011Z,15080.00
2018-06-23T08:30:01.029Z,23264.00
2018-06-23T08:31:00.965Z,19232.00
2018-06-23T08:32:01.080Z,16928.00
2018-06-23T08:33:00.913Z,15944.00
2018-06-23T08:34:00.891Z,24032.00
2018-06-23T08:35:00.862Z,14436.00
2018-06-23T08:36:00.858Z,17728.00
2018-06-23T08:37:00.864Z,16544.00
2018-06-23T08:38:00.789Z,14064.00
2018-06-23T08:39:00.772Z,25248.00
2018-06-23T08:40:00.787Z,28576.00
2018-06-23T08:41:00.718Z,17856.00
2018-06-23T08:42:00.756Z,23872.00
2018-06-23T08:43:00.670Z,24896.00
2018-06-23T08:44:00.645Z,20768.00
2018-06-23T08:45:00.663Z,25024.00
2018-06-23T08:46:00.604Z,27424.00
2018-06-23T08:47:00.575Z,21600.00
2018-06-23T08:48:00.599Z,19520.00
2018-06-23T08:49:00.534Z,29888.00
2018-06-23T08:50:00.503Z,26560.00
2018-06-23T08:51:00.527Z,25568.00
2018-06-23T08:52:00.466Z,23808.00
2018-06-23T08:53:00.434Z,24544.00
2018-06-23T08:54:00.450Z,31072.00
2018-06-23T08:55:00.387Z,24000.00
2018-06-23T08:56:00.411Z,21824.00
2018-06-23T08:57:00.453Z,18240.00
2018-06-23T08:58:00.320Z,15304.00
2018-06-23T08:59:00.303Z,15336.00
2018-06-23T09:00:00.273Z,17248.00
2018-06-23T09:01:00.304Z,14452.00
2018-06-23T09:02:00.278Z,16272.00
2018-06-23T09:03:00.226Z,13600.00
2018-06-23T09:04:00.211Z,13208.00
2018-06-23T09:05:00.162Z,16044.00
2018-06-23T09:06:00.139Z,12732.00
2018-06-23T09:07:00.158Z,9048.00
2018-06-23T09:08:00.113Z,8648.00
2018-06-23T09:09:00.072Z,9496.00
2018-06-23T09:10:00.090Z,8712.00
2018-06-23T09:11:00.032Z,11212.00
2018-06-23T09:12:00.000Z,12432.00
2018-06-23T09:12:59.976Z,13688.00
2018-06-23T09:13:59.951Z,14212.00
2018-06-23T09:14:59.967Z,11424.00
2018-06-23T09:15:59.909Z,12744.00
2018-06-23T09:16:59.878Z,14324.00
2018-06-23T09:17:59.861Z,15508.00
2018-06-23T09:18:59.879Z,17536.00
2018-06-23T09:19:59.849Z,19520.00
2018-06-23T09:20:59.834Z,24224.00
2018-06-23T09:21:59.763Z,22176.00
2018-06-23T09:22:59.785Z,21984.00
2018-06-23T09:23:59.712Z,20480.00
2018-06-23T09:24:59.688Z,20160.00
2018-06-23T09:25:59.806Z,23008.00
2018-06-23T09:26:59.695Z,22016.00
2018-06-23T09:27:59.617Z,20928.00
2018-06-23T09:28:59.595Z,15288.00
2018-06-23T09:29:59.572Z,15132.00
2018-06-23T09:30:59.552Z,14744.00
2018-06-23T09:31:59.566Z,14928.00
2018-06-23T09:32:59.550Z,16336.00
2018-06-23T09:33:59.477Z,16288.00
2018-06-23T09:34:59.455Z,15416.00
2018-06-23T09:35:59.436Z,17440.00
2018-06-23T09:36:59.407Z,18400.00
2018-06-23T09:37:59.429Z,21056.00
2018-06-23T09:38:59.422Z,22080.00
2018-06-23T09:39:59.349Z,26176.00
2018-06-23T09:40:59.317Z,20928.00
2018-06-23T09:41:59.292Z,22496.00
2018-06-23T09:42:59.275Z,20960.00
2018-06-23T09:43:59.291Z,22464.00
2018-06-23T09:44:59.228Z,23456.00
2018-06-23T09:45:59.271Z,18176.00
2018-06-23T09:46:59.178Z,21184.00
2018-06-23T09:47:59.151Z,21280.00
2018-06-23T09:48:59.193Z,16736.00
2018-06-23T09:49:59.105Z,14132.00
2018-06-23T09:50:59.086Z,12896.00
2018-06-23T09:51:59.080Z,7844.00
2018-06-23T09:52:59.098Z,6936.00
2018-06-23T09:53:59.014Z,8316.00
2018-06-23T09:54:58.993Z,8988.00
2018-06-23T09:55:59.060Z,9400.00
2018-06-23T09:56:58.945Z,10564.00
2018-06-23T09:57:58.968Z,15356.00
2018-06-23T09:58:58.971Z,23968.00
2018-06-23T09:59:58.937Z,16416.00
2018-06-23T10:00:58.855Z,16928.00
2018-06-23T10:01:58.841Z,15792.00
2018-06-23T10:02:58.808Z,12004.00
2018-06-23T10:03:58.781Z,10836.00
2018-06-23T10:04:58.829Z,13356.00
2018-06-23T10:05:58.738Z,22112.00
2018-06-23T10:06:58.727Z,22272.00
2018-06-23T10:07:58.689Z,23264.00
2018-06-23T10:08:58.688Z,18720.00
2018-06-23T10:09:58.690Z,19040.00
2018-06-23T10:10:58.619Z,21792.00
2018-06-23T10:11:58.603Z,23488.00
2018-06-23T10:12:58.576Z,24704.00
2018-06-23T10:13:58.555Z,27040.00
2018-06-23T10:14:58.574Z,27808.00
2018-06-23T10:15:58.531Z,26016.00
2018-06-23T10:16:58.488Z,24256.00
2018-06-23T10:17:58.461Z,23712.00
2018-06-23T10:18:58.452Z,23424.00
2018-06-23T10:19:58.471Z,21056.00
2018-06-23T10:20:58.452Z,19584.00
2018-06-23T10:21:58.381Z,20000.00
2018-06-23T10:22:58.349Z,21248.00
2018-06-23T10:23:58.344Z,20416.00
2018-06-23T10:24:58.305Z,20448.00
2018-06-23T10:25:58.330Z,17248.00
2018-06-23T10:26:58.308Z,14456.00
2018-06-23T10:27:58.256Z,15592.00
2018-06-23T10:28:58.223Z,17824.00
2018-06-23T10:29:58.194Z,17632.00
2018-06-23T10:30:58.175Z,15120.00
2018-06-23T10:31:58.199Z,14644.00
2018-06-23T10:32:58.187Z,12780.00
2018-06-23T10:33:58.113Z,14016.00
2018-06-23T10:34:58.082Z,13736.00
2018-06-23T10:35:58.064Z,11404.00
2018-06-23T10:36:58.052Z,13412.00
2018-06-23T10:37:58.062Z,15416.00
2018-06-23T10:38:57.996Z,17152.00
2018-06-23T10:39:57.975Z,17376.00
2018-06-23T10:40:58.024Z,21312.00
2018-06-23T10:42:02.763Z,21120.00
2018-06-23T10:42:57.947Z,18496.00
2018-06-23T10:43:57.947Z,17280.00
2018-06-23T10:44:57.866Z,15128.00
2018-06-23T10:45:57.839Z,13916.00
2018-06-23T10:46:57.881Z,11896.00
2018-06-23T10:47:57.798Z,8768.00
2018-06-23T10:48:57.815Z,7664.00
2018-06-23T10:49:57.748Z,7156.00
2018-06-23T10:50:57.726Z,7376.00
2018-06-23T10:51:57.703Z,8376.00
2018-06-23T10:52:57.724Z,10772.00
2018-06-23T10:53:57.653Z,13116.00
2018-06-23T10:54:57.679Z,14584.00
2018-06-23T10:55:57.612Z,15392.00
2018-06-23T10:56:57.595Z,19808.00
2018-06-23T10:57:57.562Z,21024.00
2018-06-23T10:58:57.551Z,21088.00
2018-06-23T10:59:57.569Z,18112.00
2018-06-23T11:00:57.496Z,16704.00
2018-06-23T11:01:57.517Z,20000.00
2018-06-23T11:02:57.494Z,17024.00
2018-06-23T11:03:57.427Z,16992.00
2018-06-23T11:04:57.590Z,17088.00
2018-06-23T11:05:57.382Z,15644.00
2018-06-23T11:06:57.358Z,14572.00
2018-06-23T11:07:57.387Z,13416.00
2018-06-23T11:08:57.316Z,13960.00
2018-06-23T11:09:57.336Z,14344.00
2018-06-23T11:10:57.271Z,16736.00
2018-06-23T11:11:57.246Z,19424.00
2018-06-23T11:12:57.233Z,15672.00
2018-06-23T11:13:57.203Z,15316.00
2018-06-23T11:14:57.221Z,15932.00
2018-06-23T11:15:57.220Z,17184.00
2018-06-23T11:16:57.138Z,21024.00
2018-06-23T11:17:57.109Z,18944.00
2018-06-23T11:18:57.086Z,17856.00
2018-06-23T11:19:57.403Z,16992.00
2018-06-23T11:20:57.193Z,14544.00
2018-06-23T11:21:57.023Z,13464.00
2018-06-23T11:22:57.000Z,13796.00
2018-06-23T11:23:56.974Z,13672.00
2018-06-23T11:24:56.960Z,13792.00
2018-06-23T11:25:56.973Z,15188.00
2018-06-23T11:26:56.953Z,17536.00
2018-06-23T11:27:56.883Z,22624.00
2018-06-23T11:28:56.861Z,26144.00
2018-06-23T11:29:56.861Z,22304.00
2018-06-23T11:30:56.816Z,19840.00
2018-06-23T11:31:56.896Z,18816.00
2018-06-23T11:32:56.774Z,18656.00
2018-06-23T11:33:56.763Z,19264.00
2018-06-23T11:34:56.724Z,19200.00
2018-06-23T11:35:56.702Z,19296.00
2018-06-23T11:36:56.724Z,19200.00
2018-06-23T11:37:56.658Z,16640.00
2018-06-23T11:38:56.679Z,18752.00
2018-06-23T11:39:56.620Z,19808.00
2018-06-23T11:40:56.592Z,15716.00
2018-06-23T11:41:56.566Z,12500.00
2018-06-23T11:42:56.547Z,10600.00
2018-06-23T11:43:56.565Z,10496.00
2018-06-23T11:44:56.500Z,13624.00
2018-06-23T11:45:56.477Z,18048.00
2018-06-23T11:46:56.457Z,19264.00
2018-06-23T11:47:56.477Z,22144.00
2018-06-23T11:48:56.411Z,25696.00
2018-06-23T11:49:56.387Z,22336.00
2018-06-23T11:50:56.371Z,22976.00
2018-06-23T11:51:56.339Z,23904.00
2018-06-23T11:52:56.379Z,24032.00
2018-06-23T11:53:56.302Z,22240.00
2018-06-23T11:54:56.287Z,19424.00
2018-06-23T11:55:56.253Z,14688.00
2018-06-23T11:56:56.228Z,14888.00
2018-06-23T11:57:56.257Z,11240.00
2018-06-23T11:58:56.186Z,7664.00
2018-06-23T11:59:56.173Z,10188.00
2018-06-23T12:00:56.190Z,13868.00
2018-06-23T12:01:56.223Z,14824.00
2018-06-23T12:02:56.098Z,14144.00
2018-06-23T12:03:56.074Z,14360.00
2018-06-23T12:04:56.066Z,15500.00
2018-06-23T12:05:56.067Z,16308.00
2018-06-23T12:06:56.012Z,16800.00
2018-06-23T12:07:55.985Z,17216.00
2018-06-23T12:08:56.027Z,17664.00
2018-06-23T12:09:55.939Z,17664.00
2018-06-23T12:10:55.918Z,18720.00